createdAt,value
2018-07-04T00:02:57.646Z,4.42
2018-07-04T00:07:43.097Z,4.50
2018-07-04T00:12:28.682Z,6.22
2018-07-04T00:17:14.222Z,5.33
2018-07-04T00:21:59.669Z,5.20
2018-07-04T00:26:45.105Z,4.62
2018-07-04T00:31:30.596Z,4.58
2018-07-04T00:36:16.062Z,4.30
2018-07-04T00:41:01.796Z,5.28
2018-07-04T00:45:47.320Z,4.42
2018-07-04T00:50:32.993Z,4.78
2018-07-04T00:55:18.690Z,4.67
2018-07-04T01:00:04.160Z,4.47
2018-07-04T01:04:49.599Z,4.80
2018-07-04T01:09:35.168Z,5.50
2018-07-04T01:14:20.665Z,5.15
2018-07-04T01:19:06.161Z,4.47
2018-07-04T01:23:52.258Z,5.28
2018-07-04T01:28:53.328Z,6.67
2018-07-04T01:33:38.692Z,4.47
2018-07-04T01:38:24.309Z,6.20
2018-07-04T01:43:10.047Z,5.08
2018-07-04T01:47:55.721Z,6.80
2018-07-04T01:52:41.337Z,4.55
2018-07-04T01:57:26.694Z,5.58
2018-07-04T02:02:12.297Z,5.35
2018-07-04T02:06:57.897Z,5.97
2018-07-04T02:11:43.324Z,6.03
2018-07-04T02:16:29.061Z,5.62
2018-07-04T02:21:14.678Z,7.35
2018-07-04T02:26:00.268Z,6.58
2018-07-04T02:30:45.721Z,7.30
2018-07-04T02:35:31.397Z,6.37
2018-07-04T02:40:10.829Z,5.47
2018-07-04T02:44:56.356Z,7.80
2018-07-04T02:49:42.825Z,5.58
2018-07-04T02:54:28.105Z,7.78
2018-07-04T02:59:13.737Z,6.00
2018-07-04T03:03:59.627Z,6.25
2018-07-04T03:08:45.322Z,5.40
2018-07-04T03:13:30.680Z,5.42
2018-07-04T03:18:10.313Z,6.78
2018-07-04T03:22:55.778Z,5.53
2018-07-04T03:27:41.436Z,5.80
2018-07-04T03:32:27.020Z,6.12
2018-07-04T03:37:12.393Z,7.28
2018-07-04T03:41:57.917Z,5.90
2018-07-04T03:46:43.816Z,5.87
2018-07-04T03:51:29.386Z,5.85
2018-07-04T03:56:15.066Z,6.25
2018-07-04T04:01:00.609Z,7.30
2018-07-04T04:05:40.240Z,6.03
2018-07-04T04:10:25.585Z,7.37
2018-07-04T04:15:11.148Z,6.72
2018-07-04T04:19:57.027Z,13.50
2018-07-04T04:24:42.861Z,7.20
2018-07-04T04:29:28.297Z,6.00
2018-07-04T04:34:13.883Z,6.85
2018-07-04T04:38:59.317Z,9.68
2018-07-04T04:43:44.912Z,8.40
2018-07-04T04:48:30.457Z,7.17
2018-07-04T04:53:15.977Z,9.25
2018-07-04T04:58:02.054Z,7.15
2018-07-04T05:02:47.657Z,9.45
2018-07-04T05:07:27.244Z,5.85
2018-07-04T05:12:12.489Z,6.87
2018-07-04T05:16:58.105Z,8.30
2018-07-04T05:21:43.503Z,6.45
2018-07-04T05:26:29.230Z,6.87
2018-07-04T05:31:14.694Z,10.38
2018-07-04T05:36:00.250Z,7.72
2018-07-04T05:40:45.811Z,10.90
2018-07-04T05:45:31.462Z,12.93
2018-07-04T05:50:16.830Z,10.55
2018-07-04T05:55:02.584Z,15.30
2018-07-04T05:59:48.198Z,13.48
2018-07-04T06:04:33.649Z,10.78
2018-07-04T06:09:19.010Z,12.73
2018-07-04T06:14:04.849Z,10.18
2018-07-04T06:18:50.497Z,6.25
2018-07-04T06:23:36.058Z,6.78
2018-07-04T06:28:21.576Z,5.10
2018-07-04T06:33:07.076Z,6.45
2018-07-04T06:37:41.433Z,9.08
2018-07-04T06:42:14.906Z,8.18
2018-07-04T06:46:48.464Z,9.68
2018-07-04T06:51:21.482Z,7.10
2018-07-04T06:55:54.526Z,4.87
2018-07-04T07:00:27.830Z,5.25
2018-07-04T07:05:13.481Z,7.87
2018-07-04T07:09:58.987Z,9.08
2018-07-04T07:14:45.233Z,7.87
2018-07-04T07:19:31.005Z,6.95
2018-07-04T07:24:16.704Z,10.10
2018-07-04T07:29:02.099Z,8.55
2018-07-04T07:33:47.407Z,5.92
2018-07-04T07:38:33.367Z,5.65
2018-07-04T07:43:18.769Z,7.60
2018-07-04T07:48:04.356Z,5.85
2018-07-04T07:52:49.869Z,4.70
2018-07-04T07:57:35.477Z,5.65
2018-07-04T08:02:21.193Z,5.20
2018-07-04T08:07:06.695Z,6.28
2018-07-04T08:11:53.650Z,4.20
2018-07-04T08:16:39.061Z,2.55
2018-07-04T08:21:24.717Z,4.42
2018-07-04T08:26:10.129Z,4.62
2018-07-04T08:30:55.571Z,4.60
2018-07-04T08:35:40.969Z,4.62
2018-07-04T08:40:26.288Z,5.67
2018-07-04T08:45:11.925Z,6.55
2018-07-04T08:49:57.761Z,4.08
2018-07-04T08:54:37.273Z,2.55
2018-07-04T08:59:22.833Z,1.50
2018-07-04T09:04:08.288Z,4.15
2018-07-04T09:08:53.641Z,1.60
2018-07-04T09:13:39.165Z,1.60
2018-07-04T09:18:24.802Z,2.02
2018-07-04T09:23:10.665Z,2.58
2018-07-04T09:27:56.030Z,3.22
2018-07-04T09:32:41.689Z,2.87
2018-07-04T09:37:27.268Z,1.70
2018-07-04T09:42:12.641Z,3.62
2018-07-04T09:46:58.365Z,2.77
2018-07-04T09:51:43.941Z,2.52
2018-07-04T09:56:29.418Z,2.08
2018-07-04T10:01:20.300Z,8.08
2018-07-04T10:06:05.804Z,2.52
2018-07-04T10:10:51.552Z,3.17
2018-07-04T10:15:36.973Z,4.35
2018-07-04T10:20:22.582Z,2.67
2018-07-04T10:25:08.270Z,4.50
2018-07-04T10:29:53.742Z,2.42
2018-07-04T10:34:39.641Z,4.30
2018-07-04T10:39:25.165Z,4.12
2018-07-04T10:44:04.600Z,5.47
2018-07-04T10:48:49.935Z,3.47
2018-07-04T10:53:35.589Z,2.87
2018-07-04T10:58:21.142Z,3.62
2018-07-04T11:03:06.522Z,2.70
2018-07-04T11:07:51.976Z,5.67
2018-07-04T11:12:37.414Z,4.92
2018-07-04T11:17:22.964Z,5.25
2018-07-04T11:22:08.518Z,4.95
2018-07-04T11:26:54.085Z,4.33
2018-07-04T11:31:39.470Z,3.42
2018-07-04T11:36:24.861Z,3.45
2018-07-04T11:41:10.573Z,3.58
2018-07-04T11:45:54.264Z,3.87
2018-07-04T11:50:27.322Z,2.85
2018-07-04T11:55:00.441Z,6.40
2018-07-04T11:59:33.490Z,4.55
2018-07-04T12:04:19.019Z,3.27
2018-07-04T12:08:52.061Z,3.72
2018-07-04T12:13:26.389Z,2.10
2018-07-04T12:17:59.428Z,2.80
2018-07-04T12:22:32.502Z,2.02
2018-07-04T12:27:05.629Z,2.50
2018-07-04T12:31:39.019Z,2.30
2018-07-04T12:36:12.272Z,3.52
2018-07-04T12:40:45.289Z,4.20
2018-07-04T12:45:18.486Z,2.87
2018-07-04T12:49:51.522Z,3.05
2018-07-04T12:54:29.982Z,2.40
2018-07-04T12:59:15.619Z,2.77
2018-07-04T13:04:01.343Z,3.15
2018-07-04T13:08:46.861Z,2.47
2018-07-04T13:13:32.593Z,3.10
2018-07-04T13:18:18.281Z,2.70
2018-07-04T13:23:04.249Z,5.40
2018-07-04T13:27:49.953Z,2.22
2018-07-04T13:32:35.362Z,2.65
2018-07-04T13:37:20.869Z,3.02
2018-07-04T13:42:06.730Z,3.77
2018-07-04T13:46:52.150Z,3.58
2018-07-04T13:51:37.828Z,2.85
2018-07-04T13:56:23.065Z,2.47
2018-07-04T14:01:08.634Z,4.00
2018-07-04T14:05:54.297Z,3.15
2018-07-04T14:10:39.821Z,3.47
2018-07-04T14:15:25.423Z,3.90
2018-07-04T14:20:11.878Z,7.47
2018-07-04T14:24:57.304Z,4.03
2018-07-04T14:29:42.721Z,2.98
2018-07-04T14:34:28.341Z,4.10
2018-07-04T14:39:13.998Z,6.42
2018-07-04T14:43:53.423Z,2.60
2018-07-04T14:48:38.709Z,3.12
2018-07-04T14:53:24.284Z,3.37
2018-07-04T14:58:10.006Z,5.20
2018-07-04T15:02:55.481Z,4.45
2018-07-04T15:07:40.966Z,2.20
2018-07-04T15:12:26.557Z,4.25
2018-07-04T15:17:12.151Z,3.17
2018-07-04T15:21:57.807Z,3.45
2018-07-04T15:26:43.837Z,2.90
2018-07-04T15:31:29.524Z,3.50
2018-07-04T15:36:15.426Z,5.05
2018-07-04T15:40:54.925Z,7.22
2018-07-04T15:45:40.529Z,5.85
2018-07-04T15:50:25.869Z,3.62
2018-07-04T15:55:11.434Z,4.53
2018-07-04T15:59:57.414Z,3.58
2018-07-04T16:04:43.211Z,3.90
2018-07-04T16:09:28.586Z,5.12
2018-07-04T16:14:14.424Z,3.25
2018-07-04T16:19:00.052Z,2.90
2018-07-04T16:23:47.089Z,5.70
2018-07-04T16:28:33.026Z,2.60
2018-07-04T16:33:19.026Z,5.40
2018-07-04T16:38:04.637Z,7.58
2018-07-04T16:42:50.017Z,4.28
2018-07-04T16:47:35.680Z,8.20
2018-07-04T16:52:22.136Z,8.88
2018-07-04T16:57:07.850Z,5.60
2018-07-04T17:01:54.519Z,6.50
2018-07-04T17:06:40.493Z,6.15
2018-07-04T17:11:26.142Z,4.78
2018-07-04T17:16:12.224Z,4.33
2018-07-04T17:20:57.883Z,3.42
2018-07-04T17:25:43.325Z,4.33
2018-07-04T17:30:22.907Z,2.92
2018-07-04T17:35:08.891Z,2.90
2018-07-04T17:39:54.460Z,2.60
2018-07-04T17:44:40.587Z,6.85
2018-07-04T17:49:26.068Z,3.55
2018-07-04T17:54:11.486Z,4.42
2018-07-04T17:58:51.316Z,9.75
2018-07-04T18:03:36.778Z,5.50
2018-07-04T18:08:22.261Z,4.60
2018-07-04T18:13:08.250Z,5.83
2018-07-04T18:17:53.559Z,5.10
2018-07-04T18:22:39.494Z,3.58
2018-07-04T18:27:25.042Z,5.00
2018-07-04T18:32:11.034Z,3.80
2018-07-04T18:36:56.934Z,3.40
2018-07-04T18:41:42.342Z,3.33
2018-07-04T18:46:21.889Z,5.47
2018-07-04T18:51:07.211Z,3.40
2018-07-04T18:55:52.786Z,4.90
2018-07-04T19:00:38.341Z,4.80
2018-07-04T19:05:23.868Z,3.67
2018-07-04T19:10:03.091Z,3.60
2018-07-04T19:14:48.579Z,5.30
2018-07-04T19:19:34.242Z,4.12
2018-07-04T19:24:19.791Z,4.87
2018-07-04T19:29:05.367Z,4.37
2018-07-04T19:33:51.046Z,4.22
2018-07-04T19:38:36.531Z,4.50
2018-07-04T19:43:22.375Z,4.58
2018-07-04T19:48:08.185Z,4.95
2018-07-04T19:52:53.822Z,5.33
2018-07-04T19:57:39.434Z,5.75
2018-07-04T20:02:24.983Z,5.22
2018-07-04T20:07:04.572Z,5.08
2018-07-04T20:11:50.174Z,5.40
2018-07-04T20:16:35.873Z,5.30
2018-07-04T20:21:21.669Z,5.28
2018-07-04T20:26:07.508Z,5.10
2018-07-04T20:30:52.993Z,6.03
2018-07-04T20:35:38.554Z,4.75
2018-07-04T20:40:24.214Z,5.58
2018-07-04T20:45:09.949Z,6.50
2018-07-04T20:49:56.002Z,6.72
2018-07-04T20:54:42.213Z,5.83
2018-07-04T20:59:27.814Z,5.65
2018-07-04T21:04:13.388Z,6.62
2018-07-04T21:08:59.651Z,5.95
2018-07-04T21:13:39.084Z,9.10
2018-07-04T21:18:24.554Z,7.50
2018-07-04T21:23:10.065Z,5.47
2018-07-04T21:27:55.453Z,4.50
2018-07-04T21:32:41.257Z,5.35
2018-07-04T21:37:27.511Z,6.55
2018-07-04T21:42:13.010Z,8.45
2018-07-04T21:46:58.625Z,5.40
2018-07-04T21:51:44.201Z,5.78
2018-07-04T21:56:29.886Z,9.73
2018-07-04T22:01:15.279Z,7.12
2018-07-04T22:05:54.785Z,5.90
2018-07-04T22:10:40.403Z,5.78
2018-07-04T22:15:25.897Z,8.28
2018-07-04T22:20:11.486Z,6.72
2018-07-04T22:24:57.037Z,5.40
2018-07-04T22:29:42.549Z,6.03
2018-07-04T22:34:28.285Z,5.05
2018-07-04T22:39:13.673Z,4.83
2018-07-04T22:43:59.282Z,5.28
2018-07-04T22:48:44.874Z,4.65
2018-07-04T22:53:30.440Z,6.58
2018-07-04T22:58:15.821Z,5.40
2018-07-04T23:03:01.153Z,8.25
2018-07-04T23:07:46.550Z,7.15
2018-07-04T23:12:31.793Z,5.92
2018-07-04T23:17:17.169Z,6.42
2018-07-04T23:22:02.665Z,5.87
2018-07-04T23:26:47.963Z,5.72
2018-07-04T23:31:33.570Z,6.22
2018-07-04T23:36:18.833Z,6.10
2018-07-04T23:41:04.193Z,5.92
2018-07-04T23:45:49.510Z,6.17
2018-07-04T23:50:35.021Z,4.80
2018-07-04T23:55:20.423Z,5.58
